Time;durP1;ratioP1;P1;durP2;ratioP2;P2;SDS_P1;SDS_P2;PMS_P1;PMS_P2;Temp;Humidity;BMP_temperature;BMP_pressure;BME280_temperature;BME280_humidity;BME280_pressure;Samples;Min_cycle;Max_cycle;Signal;HPM_P1;HPM_P2
2023/01/09 00:00:09;;;;;;;54.73;30.40;;;5.10;99.90;;;;;;5046940;28;20225;-85
2023/01/09 00:03:01;;;;;;;55.40;30.20;;;5.20;99.90;;;;;;5040532;28;20224;-86
2023/01/09 00:05:52;;;;;;;55.17;30.00;;;5.10;99.90;;;;;;5053173;28;20588;-88
2023/01/09 00:08:42;;;;;;;57.93;30.50;;;5.10;99.90;;;;;;5017146;28;20271;-89
2023/01/09 00:11:36;;;;;;;55.57;30.33;;;5.00;99.90;;;;;;4993969;28;20721;-88
2023/01/09 00:14:26;;;;;;;52.87;30.03;;;5.10;99.90;;;;;;5024306;28;20225;-88
2023/01/09 00:17:22;;;;;;;48.47;29.40;;;5.20;99.90;;;;;;5037194;28;20218;-88
2023/01/09 00:20:13;;;;;;;51.73;29.97;;;5.20;99.90;;;;;;5018362;28;20660;-88
2023/01/09 00:23:03;;;;;;;51.17;29.00;;;5.20;99.90;;;;;;5038123;28;20668;-88
2023/01/09 00:26:02;;;;;;;49.07;29.17;;;5.20;99.90;;;;;;5015596;28;20233;-88
2023/01/09 00:28:53;;;;;;;51.57;29.73;;;5.30;99.90;;;;;;5010617;28;20265;-89
2023/01/09 00:31:45;;;;;;;50.40;28.80;;;5.20;99.90;;;;;;5006712;28;20308;-88
2023/01/09 00:34:37;;;;;;;49.50;30.23;;;5.20;99.90;;;;;;5028749;28;20230;-87
2023/01/09 00:37:27;;;;;;;53.97;30.80;;;5.10;99.90;;;;;;5006333;28;20327;-87
2023/01/09 00:40:18;;;;;;;59.23;29.67;;;5.10;99.90;;;;;;5025688;28;20232;-88
2023/01/09 00:43:08;;;;;;;48.57;27.63;;;5.20;99.90;;;;;;5035636;28;20222;-89
2023/01/09 00:45:59;;;;;;;47.77;28.93;;;5.10;99.90;;;;;;5018417;28;20284;-90
2023/01/09 00:48:51;;;;;;;50.67;29.53;;;5.10;99.90;;;;;;5003019;28;20439;-91
2023/01/09 00:51:49;;;;;;;46.27;28.87;;;5.10;99.90;;;;;;5035721;28;20236;-89
2023/01/09 00:54:43;;;;;;;49.67;29.13;;;5.10;99.90;;;;;;5030621;28;20225;-90
2023/01/09 00:57:33;;;;;;;50.93;29.37;;;5.20;99.90;;;;;;5026735;28;20218;-91
2023/01/09 01:00:23;;;;;;;48.60;28.47;;;5.30;99.90;;;;;;4988928;28;20233;-91
2023/01/09 01:03:13;;;;;;;47.60;28.47;;;5.20;99.90;;;;;;4999871;28;20226;-87
2023/01/09 01:09:12;;;;;;;53.73;28.97;;;5.10;99.90;;;;;;5020052;28;20240;-90
2023/01/09 01:12:05;;;;;;;48.40;28.03;;;5.20;99.90;;;;;;5032091;28;20583;-90
2023/01/09 01:14:55;;;;;;;51.97;30.33;;;5.10;99.90;;;;;;5028650;28;20220;-89
2023/01/09 01:17:46;;;;;;;49.93;29.07;;;5.10;99.90;;;;;;5027829;28;20706;-88
2023/01/09 01:20:35;;;;;;;48.87;28.50;;;5.20;99.90;;;;;;5016912;28;20229;-88
2023/01/09 01:23:25;;;;;;;52.23;30.10;;;5.20;99.90;;;;;;5036480;28;20225;-89
2023/01/09 01:26:17;;;;;;;50.60;28.43;;;5.10;99.90;;;;;;5038247;28;20249;-90
2023/01/09 01:29:07;;;;;;;49.53;28.47;;;5.20;99.90;;;;;;5026357;28;20264;-90
2023/01/09 01:31:59;;;;;;;46.97;29.00;;;5.10;99.90;;;;;;5039673;28;20560;-91
2023/01/09 01:34:49;;;;;;;50.43;28.33;;;5.10;99.90;;;;;;5001175;28;20315;-90
2023/01/09 01:37:39;;;;;;;52.00;29.20;;;5.20;99.90;;;;;;5005410;28;20356;-89
2023/01/09 01:40:30;;;;;;;50.20;29.20;;;5.20;99.90;;;;;;5023899;28;20273;-89
2023/01/09 01:43:21;;;;;;;47.67;27.73;;;5.10;99.90;;;;;;5051261;28;20224;-89
2023/01/09 01:46:12;;;;;;;49.53;29.30;;;5.20;99.90;;;;;;5029235;28;20225;-92
2023/01/09 01:49:07;;;;;;;49.60;28.13;;;5.20;99.90;;;;;;5056105;28;20369;-89
2023/01/09 01:51:57;;;;;;;49.10;29.83;;;5.20;99.90;;;;;;5030848;28;20225;-90
2023/01/09 01:54:49;;;;;;;45.73;27.70;;;5.20;99.90;;;;;;5035890;28;20259;-91
2023/01/09 01:57:45;;;;;;;49.33;29.07;;;5.30;99.90;;;;;;5029806;28;20221;-91
2023/01/09 02:00:41;;;;;;;51.03;30.57;;;5.30;99.90;;;;;;5027771;28;20251;-90
2023/01/09 02:03:33;;;;;;;53.20;29.00;;;5.30;99.90;;;;;;5046810;28;20363;-90
2023/01/09 02:06:23;;;;;;;50.90;29.70;;;5.30;99.90;;;;;;5041896;28;20539;-89
2023/01/09 02:09:17;;;;;;;49.33;29.97;;;5.20;99.90;;;;;;5031212;28;20245;-89
2023/01/09 02:12:17;;;;;;;53.43;29.93;;;5.20;99.90;;;;;;5029166;28;20270;-90
2023/01/09 02:15:11;;;;;;;49.97;28.97;;;5.30;99.90;;;;;;5045236;28;20221;-88
2023/01/09 02:18:19;;;;;;;53.40;29.83;;;5.30;99.90;;;;;;5050585;28;20412;-89
2023/01/09 02:21:18;;;;;;;46.40;28.77;;;5.30;99.90;;;;;;5035211;28;20225;-87
2023/01/09 02:24:26;;;;;;;46.90;28.87;;;5.30;99.90;;;;;;5047930;28;20360;-87
2023/01/09 02:27:53;;;;;;;54.53;30.67;;;5.40;99.90;;;;;;5033990;28;20224;-87
2023/01/09 02:30:50;;;;;;;50.83;29.63;;;5.40;99.90;;;;;;4991606;28;20821;-81
2023/01/09 02:33:50;;;;;;;48.60;29.17;;;5.30;99.90;;;;;;5002713;28;20214;-88
2023/01/09 02:36:48;;;;;;;53.93;30.73;;;5.20;99.90;;;;;;5036683;28;20225;-87
2023/01/09 02:39:47;;;;;;;50.50;29.50;;;5.30;99.90;;;;;;5047721;28;20275;-87
2023/01/09 02:42:40;;;;;;;48.57;28.30;;;5.30;99.90;;;;;;5022080;28;20240;-87
2023/01/09 02:45:31;;;;;;;45.90;28.90;;;5.30;99.90;;;;;;5051272;28;20308;-86
2023/01/09 02:48:23;;;;;;;49.97;28.90;;;5.40;99.90;;;;;;5030164;28;20244;-88
2023/01/09 02:51:20;;;;;;;45.80;28.70;;;5.40;99.90;;;;;;5027870;28;20216;-88
2023/01/09 02:54:27;;;;;;;51.00;29.87;;;5.30;99.90;;;;;;5017196;28;20634;-87
2023/01/09 02:57:40;;;;;;;47.37;28.00;;;5.30;99.90;;;;;;5019031;28;20229;-89
2023/01/09 03:00:35;;;;;;;44.20;28.27;;;5.40;99.90;;;;;;5033018;28;20239;-89
2023/01/09 03:03:37;;;;;;;48.07;27.73;;;5.50;99.90;;;;;;5029332;28;20300;-87
2023/01/09 03:06:35;;;;;;;44.10;27.67;;;5.50;99.90;;;;;;5037278;28;20255;-87
2023/01/09 03:09:29;;;;;;;41.33;25.97;;;5.50;99.90;;;;;;5018977;28;20692;-86
2023/01/09 03:12:23;;;;;;;43.77;27.37;;;5.50;99.90;;;;;;5028260;28;20261;-87
2023/01/09 03:15:16;;;;;;;44.43;27.70;;;5.40;99.90;;;;;;5028835;28;20226;-85
2023/01/09 03:18:09;;;;;;;41.30;26.57;;;5.40;99.90;;;;;;5030996;28;20259;-86
2023/01/09 03:21:01;;;;;;;43.53;26.33;;;5.40;99.90;;;;;;5023340;28;20232;-87
2023/01/09 03:23:56;;;;;;;44.97;27.00;;;5.40;99.90;;;;;;4995020;28;20500;-88
2023/01/09 03:26:53;;;;;;;44.03;25.50;;;5.50;99.90;;;;;;4997526;28;20242;-91
2023/01/09 03:29:44;;;;;;;42.67;26.83;;;5.50;99.90;;;;;;5022804;28;20257;-88
2023/01/09 03:32:34;;;;;;;41.33;25.80;;;5.50;99.90;;;;;;5018228;28;20254;-86
2023/01/09 03:35:25;;;;;;;40.93;25.30;;;5.50;99.90;;;;;;5047200;28;20233;-87
2023/01/09 03:38:17;;;;;;;42.53;26.17;;;5.40;99.90;;;;;;5034827;28;20672;-87
2023/01/09 03:41:08;;;;;;;41.53;25.10;;;5.30;99.90;;;;;;5034912;28;20271;-88
2023/01/09 03:43:59;;;;;;;41.60;24.60;;;5.40;99.90;;;;;;5032033;28;20308;-88
2023/01/09 03:46:49;;;;;;;39.00;25.07;;;5.40;99.90;;;;;;5018745;28;20229;-91
2023/01/09 03:49:40;;;;;;;39.27;25.23;;;5.50;99.90;;;;;;5045060;28;20226;-88
2023/01/09 03:52:30;;;;;;;39.90;25.33;;;5.40;99.90;;;;;;5022080;28;20232;-89
2023/01/09 03:55:22;;;;;;;41.00;24.90;;;5.40;99.90;;;;;;5033531;28;20220;-89
2023/01/09 03:58:13;;;;;;;37.80;24.27;;;5.40;99.90;;;;;;5053089;28;20300;-87
2023/01/09 04:01:11;;;;;;;38.50;24.87;;;5.30;99.90;;;;;;5023312;28;20284;-87
2023/01/09 04:04:01;;;;;;;39.77;24.40;;;5.20;99.90;;;;;;5049139;28;20224;-87
2023/01/09 04:06:51;;;;;;;40.50;25.00;;;5.30;99.90;;;;;;5051691;28;20232;-88
2023/01/09 04:09:41;;;;;;;39.97;25.27;;;5.20;99.90;;;;;;5055120;28;20232;-89
2023/01/09 04:12:32;;;;;;;40.03;24.43;;;5.30;99.90;;;;;;5025934;28;20221;-89
2023/01/09 04:15:22;;;;;;;41.37;25.93;;;5.30;99.90;;;;;;5045715;28;20237;-91
2023/01/09 04:18:12;;;;;;;43.70;26.50;;;5.10;99.90;;;;;;5041596;28;20747;-90
2023/01/09 04:21:01;;;;;;;39.53;25.20;;;5.20;99.90;;;;;;5050330;28;20859;-89
2023/01/09 04:23:51;;;;;;;43.70;26.40;;;5.20;99.90;;;;;;5023658;28;20309;-87
2023/01/09 04:26:41;;;;;;;41.97;26.10;;;5.30;99.90;;;;;;5049669;28;20217;-87
2023/01/09 04:29:36;;;;;;;42.27;26.57;;;5.20;99.90;;;;;;5031874;28;20236;-89
2023/01/09 04:32:30;;;;;;;42.87;25.50;;;5.20;99.90;;;;;;5053381;28;20224;-88
2023/01/09 04:35:21;;;;;;;43.07;25.33;;;5.20;99.90;;;;;;5029646;28;20332;-89
2023/01/09 04:38:13;;;;;;;43.33;25.37;;;5.20;99.90;;;;;;5030946;28;20309;-88
2023/01/09 04:41:05;;;;;;;41.60;25.73;;;5.30;99.90;;;;;;5031102;28;20224;-91
2023/01/09 04:43:55;;;;;;;41.83;25.77;;;5.20;99.90;;;;;;5027784;28;20224;-89
2023/01/09 04:46:48;;;;;;;37.90;24.83;;;5.30;99.90;;;;;;5042247;28;20222;-89
2023/01/09 04:49:39;;;;;;;42.93;26.40;;;5.30;99.90;;;;;;5041178;28;20368;-88
2023/01/09 04:52:31;;;;;;;36.73;24.53;;;5.40;99.90;;;;;;5056229;28;20292;-90
2023/01/09 04:55:22;;;;;;;39.00;24.77;;;5.40;99.90;;;;;;5043408;28;20233;-91
2023/01/09 04:58:14;;;;;;;39.53;25.47;;;5.50;99.90;;;;;;5026897;28;20231;-90
2023/01/09 05:01:06;;;;;;;39.90;25.20;;;5.40;99.90;;;;;;5039833;28;20240;-90
2023/01/09 05:03:59;;;;;;;38.63;24.47;;;5.50;99.90;;;;;;5046995;28;20224;-89
2023/01/09 05:06:52;;;;;;;36.53;23.97;;;5.50;99.90;;;;;;5030091;28;20221;-87
2023/01/09 05:09:43;;;;;;;39.33;24.63;;;5.50;99.90;;;;;;5024984;28;20312;-87
2023/01/09 05:12:35;;;;;;;36.40;23.83;;;5.60;99.90;;;;;;5046294;28;20248;-89
2023/01/09 05:15:27;;;;;;;38.47;24.03;;;5.70;99.90;;;;;;5035999;28;20233;-89
2023/01/09 05:18:17;;;;;;;41.00;24.63;;;5.60;99.90;;;;;;5051546;28;20225;-90
2023/01/09 05:21:09;;;;;;;40.00;25.13;;;5.60;99.90;;;;;;5027686;28;20232;-89
2023/01/09 05:23:59;;;;;;;36.17;23.97;;;5.60;99.90;;;;;;5027697;28;20237;-88
2023/01/09 05:26:50;;;;;;;37.47;23.30;;;5.60;99.90;;;;;;5038365;28;20240;-88
2023/01/09 05:29:41;;;;;;;40.57;25.00;;;5.60;99.90;;;;;;5039932;28;20577;-89
2023/01/09 05:32:31;;;;;;;37.60;24.07;;;5.60;99.90;;;;;;5037192;28;20231;-89
2023/01/09 05:35:22;;;;;;;39.13;24.57;;;5.60;99.90;;;;;;5022322;28;20244;-88
2023/01/09 05:38:13;;;;;;;36.07;24.23;;;5.70;99.90;;;;;;5049624;28;20271;-87
2023/01/09 05:41:03;;;;;;;37.03;23.87;;;5.70;99.90;;;;;;5022941;28;20293;-87
2023/01/09 05:43:55;;;;;;;38.70;23.67;;;5.80;99.90;;;;;;5016636;28;20225;-87
2023/01/09 05:46:46;;;;;;;36.97;23.37;;;5.60;99.90;;;;;;5050903;28;20217;-87
2023/01/09 05:49:39;;;;;;;35.00;23.70;;;5.70;99.90;;;;;;5054778;28;20237;-89
2023/01/09 05:52:31;;;;;;;37.77;22.87;;;5.70;99.90;;;;;;5028353;28;20221;-89
2023/01/09 05:55:23;;;;;;;35.93;22.83;;;5.70;99.90;;;;;;5024532;28;20232;-89
2023/01/09 05:58:13;;;;;;;36.57;23.20;;;5.70;99.90;;;;;;5046049;28;20221;-88
2023/01/09 06:01:04;;;;;;;36.60;23.70;;;5.70;99.90;;;;;;5021960;28;20210;-89
2023/01/09 06:03:56;;;;;;;34.30;22.27;;;5.70;99.90;;;;;;5031647;28;20369;-89
2023/01/09 06:06:46;;;;;;;34.30;23.53;;;5.80;99.90;;;;;;5026418;28;20217;-90
2023/01/09 06:09:36;;;;;;;33.03;22.77;;;5.80;99.90;;;;;;5026432;28;20390;-87
2023/01/09 06:12:32;;;;;;;37.40;22.80;;;5.80;99.90;;;;;;5048042;28;20416;-89
2023/01/09 06:15:22;;;;;;;34.03;22.50;;;5.90;99.90;;;;;;5044311;28;20575;-89
2023/01/09 06:18:12;;;;;;;32.77;22.07;;;5.90;99.90;;;;;;5023570;28;20213;-89
2023/01/09 06:21:05;;;;;;;35.17;23.50;;;5.80;99.90;;;;;;5051142;28;20583;-87
2023/01/09 06:23:54;;;;;;;34.00;21.97;;;5.70;99.90;;;;;;5034458;28;20249;-89
2023/01/09 06:26:44;;;;;;;35.60;22.03;;;5.70;99.90;;;;;;5029748;28;20312;-89
2023/01/09 06:29:36;;;;;;;33.13;22.40;;;5.70;99.90;;;;;;5031042;28;20213;-89
2023/01/09 06:32:32;;;;;;;32.93;21.87;;;5.70;99.90;;;;;;5049080;28;20232;-91
2023/01/09 06:35:23;;;;;;;32.23;22.03;;;5.70;99.90;;;;;;5034767;28;20222;-89
2023/01/09 06:38:15;;;;;;;35.73;22.60;;;5.70;99.90;;;;;;5046635;28;20476;-89
2023/01/09 06:41:14;;;;;;;34.67;22.57;;;5.80;99.90;;;;;;5047055;28;20233;-85
2023/01/09 06:44:09;;;;;;;31.23;21.77;;;5.80;99.90;;;;;;5023988;28;20248;-85
2023/01/09 06:47:09;;;;;;;33.23;22.63;;;5.80;99.90;;;;;;5031034;28;20293;-84
2023/01/09 06:50:01;;;;;;;30.47;21.07;;;5.70;99.90;;;;;;5022609;28;20564;-85
2023/01/09 06:52:58;;;;;;;31.20;22.40;;;5.60;99.90;;;;;;5042992;28;20237;-86
2023/01/09 06:55:53;;;;;;;32.07;21.37;;;5.60;99.90;;;;;;5020426;28;20295;-84
2023/01/09 06:58:43;;;;;;;33.43;21.97;;;5.70;99.90;;;;;;5018861;28;20589;-80
2023/01/09 07:01:32;;;;;;;30.37;20.87;;;5.70;99.90;;;;;;5024776;28;20307;-79
2023/01/09 07:04:23;;;;;;;36.53;21.47;;;5.70;99.90;;;;;;5026671;28;20229;-80
2023/01/09 07:07:12;;;;;;;33.13;21.17;;;5.70;99.90;;;;;;5038420;28;20209;-79
2023/01/09 07:10:01;;;;;;;30.63;20.63;;;5.60;99.90;;;;;;5039770;28;20553;-81
2023/01/09 07:12:50;;;;;;;30.03;20.67;;;5.60;99.90;;;;;;5044492;28;20712;-79
2023/01/09 07:15:40;;;;;;;30.43;20.40;;;5.70;99.90;;;;;;5016010;28;20229;-80
2023/01/09 07:18:29;;;;;;;29.87;20.80;;;5.80;99.90;;;;;;5017602;28;20232;-79
2023/01/09 07:21:20;;;;;;;32.10;21.50;;;5.80;99.90;;;;;;5047206;28;20217;-82
2023/01/09 07:24:08;;;;;;;28.07;20.27;;;5.70;99.90;;;;;;5013144;28;20574;-80
2023/01/09 07:26:57;;;;;;;33.63;21.50;;;5.70;99.90;;;;;;5022426;28;20364;-80
2023/01/09 07:29:46;;;;;;;33.07;21.73;;;5.70;99.90;;;;;;5031020;28;20307;-78
2023/01/09 07:32:37;;;;;;;34.97;20.47;;;5.70;99.90;;;;;;5026536;28;20619;-80
2023/01/09 07:35:26;;;;;;;35.00;22.00;;;5.80;99.90;;;;;;5034159;28;20316;-81
2023/01/09 07:38:16;;;;;;;33.70;20.97;;;5.80;99.90;;;;;;5033080;28;20220;-81
2023/01/09 07:41:05;;;;;;;30.63;20.37;;;5.70;99.90;;;;;;5034917;28;20275;-80
2023/01/09 07:43:54;;;;;;;33.67;21.27;;;5.80;99.90;;;;;;5025140;28;20255;-82
2023/01/09 07:46:43;;;;;;;32.57;20.60;;;5.80;99.90;;;;;;5027263;28;20753;-79
2023/01/09 07:49:32;;;;;;;32.40;21.30;;;5.80;99.90;;;;;;5024419;28;20743;-79
2023/01/09 07:52:21;;;;;;;33.20;21.27;;;5.70;99.90;;;;;;5038673;28;21309;-80
2023/01/09 07:55:11;;;;;;;29.90;20.40;;;5.80;99.90;;;;;;5035400;28;20228;-79
2023/01/09 07:58:00;;;;;;;29.87;21.07;;;5.80;99.90;;;;;;5029163;28;20218;-81
2023/01/09 08:00:51;;;;;;;32.13;21.10;;;5.80;99.90;;;;;;5015273;28;20225;-81
2023/01/09 08:03:40;;;;;;;29.63;20.77;;;5.80;99.90;;;;;;5008285;28;20222;-80
2023/01/09 08:06:29;;;;;;;33.80;20.60;;;5.80;99.90;;;;;;5030663;28;20225;-80
2023/01/09 08:09:18;;;;;;;29.70;20.33;;;5.80;99.90;;;;;;5029381;28;20240;-80
2023/01/09 08:12:08;;;;;;;29.97;20.47;;;5.80;99.90;;;;;;5034640;28;20230;-81
2023/01/09 08:14:58;;;;;;;30.67;19.90;;;5.80;99.90;;;;;;5030818;28;20356;-80
2023/01/09 08:17:47;;;;;;;29.77;21.17;;;5.80;99.90;;;;;;5014180;28;20230;-80
2023/01/09 08:20:36;;;;;;;29.70;20.43;;;5.80;99.90;;;;;;5023096;28;20278;-80
2023/01/09 08:23:25;;;;;;;30.13;19.57;;;5.80;99.90;;;;;;5026448;28;20229;-81
2023/01/09 08:26:14;;;;;;;27.57;19.83;;;5.80;99.90;;;;;;5014370;28;20229;-80
2023/01/09 08:29:05;;;;;;;28.73;19.40;;;5.80;99.90;;;;;;5055577;28;20221;-79
2023/01/09 08:31:54;;;;;;;28.00;19.80;;;5.90;99.90;;;;;;5046905;28;20317;-79
2023/01/09 08:34:43;;;;;;;30.03;19.87;;;6.00;99.90;;;;;;5026823;28;20354;-79
2023/01/09 08:37:31;;;;;;;25.70;18.37;;;5.90;99.90;;;;;;5032887;28;20233;-76
2023/01/09 08:40:20;;;;;;;27.27;19.13;;;6.00;99.90;;;;;;5024027;28;20232;-82
2023/01/09 08:49:27;;;;;;;28.80;20.20;;;5.90;99.90;;;;;;5038182;28;20378;-86
2023/01/09 08:52:16;;;;;;;29.30;20.43;;;6.00;99.90;;;;;;5051840;28;20220;-80
2023/01/09 08:55:05;;;;;;;28.47;19.67;;;6.10;99.90;;;;;;5037193;28;20213;-80
2023/01/09 08:57:55;;;;;;;27.70;19.83;;;6.10;99.90;;;;;;5022316;28;20731;-81
2023/01/09 09:00:44;;;;;;;31.40;20.10;;;6.10;99.90;;;;;;5017095;28;20219;-82
2023/01/09 09:03:34;;;;;;;31.40;19.63;;;6.20;99.90;;;;;;5028674;28;20221;-80
2023/01/09 09:06:23;;;;;;;27.33;18.73;;;6.10;99.90;;;;;;5012968;28;20225;-80
2023/01/09 09:09:12;;;;;;;30.37;20.33;;;6.10;99.90;;;;;;5028150;28;20297;-80
2023/01/09 09:12:01;;;;;;;28.83;19.10;;;6.10;99.90;;;;;;5025574;28;20217;-79
2023/01/09 09:17:57;;;;;;;26.97;19.50;;;6.20;99.90;;;;;;5027291;28;20225;-80
2023/01/09 09:20:48;;;;;;;29.53;19.87;;;6.10;99.90;;;;;;5035974;28;20233;-80
2023/01/09 09:23:36;;;;;;;28.87;19.30;;;6.20;99.90;;;;;;5035510;28;20347;-81
2023/01/09 09:26:25;;;;;;;26.80;18.33;;;6.20;99.90;;;;;;5032515;28;20278;-82
2023/01/09 09:29:14;;;;;;;28.13;19.83;;;6.10;99.90;;;;;;5034200;28;20295;-82
2023/01/09 09:32:03;;;;;;;28.17;19.53;;;6.10;99.90;;;;;;5031766;28;20232;-80
2023/01/09 09:34:52;;;;;;;28.60;19.93;;;6.20;99.90;;;;;;5015230;28;20561;-80
2023/01/09 09:37:42;;;;;;;29.70;19.07;;;6.10;99.90;;;;;;5036724;28;20637;-81
2023/01/09 09:40:57;;;;;;;30.07;19.87;;;6.10;99.90;;;;;;5025154;28;20220;-79
2023/01/09 09:47:17;;;;;;;28.70;19.27;;;6.30;99.90;;;;;;5033004;28;20763;-81
2023/01/09 09:50:26;;;;;;;28.07;18.27;;;6.40;99.90;;;;;;5032058;28;20316;-81
2023/01/09 09:53:21;;;;;;;25.13;17.77;;;6.40;99.90;;;;;;5017702;28;20308;-81
2023/01/09 09:56:14;;;;;;;32.20;19.20;;;6.50;99.90;;;;;;5036061;28;20297;-81
2023/01/09 09:59:07;;;;;;;27.23;18.97;;;6.50;99.90;;;;;;5035009;28;20229;-80
2023/01/09 10:01:59;;;;;;;32.33;18.43;;;6.50;99.90;;;;;;5027890;28;20230;-81
2023/01/09 10:04:54;;;;;;;25.57;17.90;;;6.60;99.90;;;;;;5023366;28;20712;-80
2023/01/09 10:07:47;;;;;;;29.53;19.10;;;6.60;99.90;;;;;;5030441;28;21006;-81
2023/01/09 10:10:42;;;;;;;27.07;18.93;;;6.60;99.90;;;;;;5025112;28;20229;-82
2023/01/09 10:16:52;;;;;;;28.33;19.20;;;6.50;99.90;;;;;;5016100;28;20270;-81
2023/01/09 10:20:00;;;;;;;28.60;19.00;;;6.60;99.90;;;;;;5017042;28;20359;-78
2023/01/09 10:22:56;;;;;;;26.33;19.03;;;6.50;99.90;;;;;;5030325;28;20233;-77
2023/01/09 10:25:52;;;;;;;26.23;19.10;;;6.50;99.90;;;;;;5029464;28;20228;-78
2023/01/09 10:28:57;;;;;;;28.77;19.90;;;6.60;99.90;;;;;;5028931;28;20232;-76
2023/01/09 10:31:55;;;;;;;28.13;19.50;;;6.60;99.90;;;;;;5029629;28;20255;-77
2023/01/09 10:35:03;;;;;;;28.23;20.20;;;6.50;99.90;;;;;;5021204;28;20217;-77
2023/01/09 10:37:54;;;;;;;29.50;20.67;;;6.60;99.90;;;;;;5024172;28;20479;-73
2023/01/09 10:40:50;;;;;;;37.67;21.13;;;6.50;99.90;;;;;;5015805;28;20971;-80
2023/01/09 10:43:44;;;;;;;34.13;20.53;;;6.50;99.90;;;;;;5026738;28;20221;-74
2023/01/09 10:46:39;;;;;;;30.17;21.13;;;6.60;99.90;;;;;;5040895;28;20232;-74
2023/01/09 10:49:28;;;;;;;29.57;21.43;;;6.60;99.90;;;;;;5016109;28;20233;-73
2023/01/09 10:52:19;;;;;;;35.50;21.53;;;6.70;99.90;;;;;;5027868;28;20225;-73
2023/01/09 10:55:19;;;;;;;34.03;20.87;;;6.70;99.90;;;;;;5029049;28;20217;-73
2023/01/09 10:58:13;;;;;;;30.20;20.53;;;6.70;99.90;;;;;;5029053;28;20232;-73
2023/01/09 11:01:03;;;;;;;31.67;21.33;;;6.80;99.90;;;;;;5025798;28;20256;-72
2023/01/09 11:03:51;;;;;;;31.63;21.10;;;6.70;99.90;;;;;;5027687;28;20228;-73
2023/01/09 11:06:45;;;;;;;28.87;21.37;;;6.70;99.90;;;;;;5014032;28;20221;-73
2023/01/09 11:09:55;;;;;;;30.17;21.50;;;6.70;99.90;;;;;;5021559;28;20869;-73
2023/01/09 11:12:43;;;;;;;34.20;21.43;;;6.60;99.90;;;;;;5009143;28;20213;-73
2023/01/09 11:15:33;;;;;;;30.97;21.93;;;6.70;99.90;;;;;;5024414;28;20227;-73
2023/01/09 11:18:24;;;;;;;33.67;22.93;;;6.80;99.90;;;;;;5028071;28;20225;-74
2023/01/09 11:21:23;;;;;;;28.57;21.23;;;6.70;99.90;;;;;;5027467;28;20220;-73
2023/01/09 11:24:28;;;;;;;33.03;22.20;;;6.80;99.90;;;;;;5039697;28;20243;-73
2023/01/09 11:27:26;;;;;;;30.27;21.23;;;6.80;99.90;;;;;;5032837;28;20249;-73
2023/01/09 11:30:18;;;;;;;32.57;22.10;;;6.80;99.90;;;;;;5028786;28;21024;-74
2023/01/09 11:33:17;;;;;;;30.87;22.73;;;6.80;99.90;;;;;;5036551;28;20413;-72
2023/01/09 11:36:09;;;;;;;35.73;24.60;;;6.60;99.90;;;;;;5023940;28;20228;-73
2023/01/09 11:39:01;;;;;;;36.70;23.00;;;6.70;99.90;;;;;;5034978;28;20366;-75
2023/01/09 11:41:54;;;;;;;32.13;23.20;;;6.60;99.90;;;;;;5032146;28;20225;-75
2023/01/09 11:44:43;;;;;;;35.87;24.27;;;6.50;99.90;;;;;;5027177;28;20233;-74
2023/01/09 11:47:41;;;;;;;33.67;23.77;;;6.50;99.90;;;;;;5035572;28;20214;-74
2023/01/09 11:50:31;;;;;;;33.53;22.87;;;6.50;99.90;;;;;;5033610;28;20231;-74
2023/01/09 11:53:21;;;;;;;34.53;22.77;;;6.50;99.90;;;;;;5032864;28;20223;-73
2023/01/09 11:56:10;;;;;;;30.93;22.33;;;6.60;99.90;;;;;;5030171;28;20217;-75
2023/01/09 11:59:00;;;;;;;34.87;22.97;;;6.60;99.90;;;;;;5033858;28;20724;-74
2023/01/09 12:02:25;;;;;;;31.17;21.70;;;6.70;99.90;;;;;;5032235;28;20221;-74
2023/01/09 12:05:25;;;;;;;31.47;22.67;;;6.60;99.90;;;;;;5013265;28;20218;-75
2023/01/09 12:08:39;;;;;;;30.53;22.57;;;6.60;99.90;;;;;;5031971;28;20210;-73
2023/01/09 12:11:36;;;;;;;33.13;23.00;;;6.60;99.90;;;;;;5009032;28;20233;-74
2023/01/09 12:14:40;;;;;;;35.47;23.90;;;6.70;99.90;;;;;;5008561;28;20223;-74
2023/01/09 12:17:52;;;;;;;33.03;22.93;;;6.70;99.90;;;;;;5000214;28;20263;-75
2023/01/09 12:20:53;;;;;;;33.27;23.87;;;6.80;99.90;;;;;;4995918;28;20235;-75
2023/01/09 12:24:03;;;;;;;34.17;23.23;;;6.90;99.90;;;;;;4978921;28;20296;-75
2023/01/09 12:27:04;;;;;;;35.10;23.63;;;6.90;99.90;;;;;;4995058;28;20238;-75
2023/01/09 12:30:32;;;;;;;36.10;25.73;;;6.90;99.90;;;;;;5012605;28;20232;-76
2023/01/09 12:33:33;;;;;;;34.77;25.30;;;6.90;99.90;;;;;;5003008;28;21024;-75
2023/01/09 12:36:29;;;;;;;32.10;24.20;;;6.90;99.90;;;;;;4999501;28;20231;-74
2023/01/09 12:39:31;;;;;;;32.07;23.83;;;6.90;99.90;;;;;;4988212;28;20231;-74
2023/01/09 12:42:35;;;;;;;34.40;24.23;;;7.00;99.90;;;;;;4985884;28;20284;-76
2023/01/09 12:45:44;;;;;;;33.23;24.63;;;7.00;99.90;;;;;;4991700;28;20716;-75
2023/01/09 12:49:07;;;;;;;34.33;24.50;;;7.00;99.90;;;;;;5008242;28;20229;-74
2023/01/09 12:52:02;;;;;;;32.23;24.43;;;7.00;99.90;;;;;;5001257;28;20373;-74
2023/01/09 12:54:57;;;;;;;34.30;24.30;;;7.10;99.90;;;;;;4982327;28;20235;-75
2023/01/09 12:57:50;;;;;;;34.17;25.63;;;7.10;99.90;;;;;;4989608;28;20628;-75
2023/01/09 13:00:41;;;;;;;35.90;26.00;;;7.10;99.90;;;;;;4999412;28;20227;-74
2023/01/09 13:03:38;;;;;;;37.97;26.13;;;7.10;99.90;;;;;;4994269;28;20330;-74
2023/01/09 13:06:31;;;;;;;31.93;25.00;;;7.10;99.90;;;;;;4996494;28;20228;-74
2023/01/09 13:09:26;;;;;;;35.67;26.67;;;7.10;99.90;;;;;;5003964;28;20233;-73
2023/01/09 13:12:20;;;;;;;37.50;26.07;;;7.20;99.90;;;;;;5033522;28;20227;-75
2023/01/09 13:15:24;;;;;;;34.43;25.60;;;7.20;99.90;;;;;;5019718;28;20779;-74
2023/01/09 13:18:21;;;;;;;36.80;25.97;;;7.10;99.90;;;;;;5025626;28;20584;-74
2023/01/09 13:21:12;;;;;;;37.40;26.00;;;7.10;99.90;;;;;;5028045;28;20228;-74
2023/01/09 13:24:07;;;;;;;36.73;26.63;;;7.20;99.90;;;;;;5044835;28;20239;-75
2023/01/09 13:26:59;;;;;;;33.53;25.60;;;7.20;99.90;;;;;;5012536;28;20347;-77
2023/01/09 13:29:54;;;;;;;36.93;27.13;;;7.20;99.90;;;;;;5016389;28;20234;-75
2023/01/09 13:32:53;;;;;;;33.73;26.57;;;7.20;99.90;;;;;;5026331;28;20362;-76
2023/01/09 13:35:51;;;;;;;36.63;27.17;;;7.20;99.90;;;;;;5026436;28;20235;-75
2023/01/09 13:38:41;;;;;;;35.80;27.67;;;7.20;99.90;;;;;;4994812;28;20228;-76
2023/01/09 13:44:38;;;;;;;37.43;26.73;;;7.20;99.90;;;;;;5033003;28;20943;-75
2023/01/09 13:47:29;;;;;;;35.53;24.80;;;7.20;99.90;;;;;;5032961;28;20222;-75
2023/01/09 13:50:26;;;;;;;33.90;25.90;;;7.30;99.90;;;;;;5028451;28;20667;-76
2023/01/09 13:53:48;;;;;;;35.97;26.20;;;7.30;99.90;;;;;;5030118;28;20222;-76
2023/01/09 13:57:10;;;;;;;35.53;25.07;;;7.30;99.90;;;;;;5007033;28;20991;-75
2023/01/09 14:00:15;;;;;;;34.87;25.13;;;7.30;99.90;;;;;;4996781;28;20237;-75
2023/01/09 14:03:18;;;;;;;35.70;25.37;;;7.30;99.90;;;;;;5013499;28;20617;-75
2023/01/09 14:06:16;;;;;;;34.67;26.30;;;7.30;99.90;;;;;;5013280;28;20224;-76
2023/01/09 14:09:13;;;;;;;33.10;24.70;;;7.30;99.90;;;;;;5031243;28;20222;-75
2023/01/09 14:12:04;;;;;;;31.37;23.87;;;7.30;99.90;;;;;;5027642;28;20631;-79
2023/01/09 14:14:57;;;;;;;34.53;24.80;;;7.40;99.90;;;;;;5038468;28;20315;-75
2023/01/09 14:17:48;;;;;;;38.17;25.13;;;7.50;99.90;;;;;;5029204;28;20239;-74
2023/01/09 14:20:42;;;;;;;34.93;24.80;;;7.40;99.90;;;;;;5036100;28;21138;-74
2023/01/09 14:23:34;;;;;;;33.07;24.47;;;7.40;99.90;;;;;;5025755;28;20996;-74
2023/01/09 14:26:44;;;;;;;33.63;24.90;;;7.40;99.90;;;;;;5003179;28;20221;-74
2023/01/09 14:29:47;;;;;;;33.60;25.57;;;7.50;99.90;;;;;;5032504;28;20221;-73
2023/01/09 14:32:45;;;;;;;32.83;25.97;;;7.50;99.90;;;;;;5029960;28;20238;-73
2023/01/09 14:35:45;;;;;;;34.47;26.40;;;7.50;99.90;;;;;;5011019;28;20218;-74
2023/01/09 14:38:36;;;;;;;32.83;24.77;;;7.50;99.90;;;;;;5006786;28;20233;-74
2023/01/09 14:44:50;;;;;;;36.10;25.80;;;7.50;99.90;;;;;;5002956;28;20710;-74
2023/01/09 14:47:43;;;;;;;32.07;24.47;;;7.50;99.90;;;;;;5012156;28;20232;-75
2023/01/09 14:50:34;;;;;;;34.73;25.57;;;7.50;99.90;;;;;;5041032;28;20274;-73
2023/01/09 14:53:27;;;;;;;34.47;25.10;;;7.50;99.90;;;;;;5029488;28;20243;-75
2023/01/09 14:56:28;;;;;;;35.83;26.63;;;7.60;99.90;;;;;;4992258;28;20600;-73
2023/01/09 14:59:17;;;;;;;31.73;24.47;;;7.60;99.90;;;;;;5034139;28;20217;-73
2023/01/09 15:02:10;;;;;;;34.87;25.53;;;7.60;99.90;;;;;;5032577;28;20222;-73
2023/01/09 15:05:04;;;;;;;34.47;24.90;;;7.60;99.90;;;;;;5027737;28;20744;-75
2023/01/09 15:07:56;;;;;;;34.13;25.17;;;7.70;99.90;;;;;;5025009;28;20346;-73
2023/01/09 15:10:49;;;;;;;31.27;24.27;;;7.70;99.90;;;;;;5037857;28;20746;-73
2023/01/09 15:13:50;;;;;;;31.90;24.50;;;7.70;99.90;;;;;;5029777;28;20227;-74
2023/01/09 15:16:38;;;;;;;30.00;23.83;;;7.70;99.90;;;;;;5019888;28;20229;-73